Pierce, Oklahoma
Current Conditions -  °F | °C
As of 8:53 PM on Monday 22 Dec 2014 (Local Time) from KMKO Reporting Station
Clear Clear  
Wind Chill: 40°   Ceiling: Unl
Heat Index: 44°   Visibility: 10mi
Dew Point: 39°   Wind: 7mph
Humidity: 82%   Direction: 320°NW
Pressure: 29.66"   Gusts: NA
Location:  35.4498°N, 95.4869°W
Report Text: KMKO 230253Z AUTO 32006KT 10SM CLR 07/04 A2966 RMK AO2 SLP045 T00670039 51011
Loading
Personal Weather Stations






























Interactive Weather Map New forecast layout! Learn more

10-Day Weather Forecast

Advertisements
Track Severe Weather on mobile